createdAt,value
2018-03-04T00:00:54.215Z,125.10
2018-03-04T00:03:31.848Z,111.93
2018-03-04T00:06:04.691Z,111.82
2018-03-04T00:08:38.430Z,124.82
2018-03-04T00:11:09.138Z,117.80
2018-03-04T00:13:40.246Z,112.90
2018-03-04T00:16:11.893Z,119.03
2018-03-04T00:18:43.209Z,125.97
2018-03-04T00:21:13.914Z,128.43
2018-03-04T00:24:02.652Z,126.03
2018-03-04T00:26:40.549Z,120.78
2018-03-04T00:29:11.215Z,125.80
2018-03-04T00:31:42.579Z,125.65
2018-03-04T00:34:15.053Z,124.80
2018-03-04T00:36:47.572Z,123.40
2018-03-04T00:39:18.500Z,127.45
2018-03-04T00:41:50.397Z,122.07
2018-03-04T00:44:21.361Z,123.65
2018-03-04T00:46:53.672Z,128.77
2018-03-04T00:49:24.244Z,122.75
2018-03-04T00:51:59.539Z,121.47
2018-03-04T00:54:30.180Z,118.62
2018-03-04T00:57:02.021Z,118.82
2018-03-04T00:59:32.728Z,119.18
2018-03-04T01:02:03.523Z,119.80
2018-03-04T01:04:34.020Z,114.12
2018-03-04T01:07:05.838Z,127.95
2018-03-04T01:09:40.140Z,127.60
2018-03-04T01:12:11.564Z,136.93
2018-03-04T01:14:54.769Z,141.95
2018-03-04T01:17:26.133Z,131.77
2018-03-04T01:19:58.960Z,139.98
2018-03-04T01:22:29.555Z,133.77
2018-03-04T01:25:01.127Z,123.50
2018-03-04T01:27:32.112Z,138.65
2018-03-04T01:30:03.745Z,135.25
2018-03-04T01:32:36.085Z,139.52
2018-03-04T01:35:08.574Z,146.90
2018-03-04T01:37:39.529Z,141.30
2018-03-04T01:40:11.070Z,128.18
2018-03-04T01:42:42.966Z,136.27
2018-03-04T01:45:13.797Z,138.90
2018-03-04T01:47:45.010Z,134.85
2018-03-04T01:50:15.553Z,134.17
2018-03-04T01:52:47.877Z,132.50
2018-03-04T01:55:19.758Z,132.20
2018-03-04T01:57:52.521Z,142.40
2018-03-04T02:00:24.911Z,137.85
2018-03-04T02:02:55.949Z,132.55
2018-03-04T02:05:26.659Z,138.53
2018-03-04T02:07:59.879Z,144.15
2018-03-04T02:10:31.585Z,138.05
2018-03-04T02:13:02.190Z,139.73
2018-03-04T02:15:34.508Z,140.13
2018-03-04T02:18:07.005Z,137.90
2018-03-04T02:20:43.581Z,126.15
2018-03-04T02:23:14.127Z,139.57
2018-03-04T02:25:44.678Z,129.02
2018-03-04T02:28:18.992Z,138.65
2018-03-04T02:30:50.497Z,145.87
2018-03-04T02:33:23.699Z,145.25
2018-03-04T02:35:54.139Z,143.70
2018-03-04T02:38:25.944Z,136.45
2018-03-04T02:40:56.768Z,140.73
2018-03-04T02:43:27.405Z,137.40
2018-03-04T02:45:58.428Z,143.23
2018-03-04T02:48:29.708Z,143.62
2018-03-04T02:51:01.826Z,138.10
2018-03-04T02:53:36.423Z,143.23
2018-03-04T02:56:07.404Z,138.60
2018-03-04T02:58:42.054Z,138.73
2018-03-04T03:01:14.778Z,140.80
2018-03-04T03:03:50.568Z,139.15
2018-03-04T03:06:24.733Z,146.32
2018-03-04T03:08:57.017Z,147.65
2018-03-04T03:11:30.050Z,134.57
2018-03-04T03:14:03.248Z,143.82
2018-03-04T03:16:34.043Z,145.52
2018-03-04T03:19:06.269Z,144.75
2018-03-04T03:21:36.884Z,145.00
2018-03-04T03:24:11.123Z,143.07
2018-03-04T03:26:41.454Z,140.40
2018-03-04T03:29:12.136Z,142.50
2018-03-04T03:31:46.688Z,165.20
2018-03-04T03:34:24.095Z,190.35
2018-03-04T03:36:54.690Z,191.70
2018-03-04T03:39:28.387Z,170.80
2018-03-04T03:41:59.269Z,165.32
2018-03-04T03:44:32.471Z,176.07
2018-03-04T03:47:03.234Z,168.35
2018-03-04T03:49:33.575Z,166.17
2018-03-04T03:52:04.832Z,156.02
2018-03-04T03:54:36.788Z,153.75
2018-03-04T03:57:10.207Z,173.90
2018-03-04T03:59:42.763Z,187.40
2018-03-04T04:02:13.604Z,178.52
2018-03-04T04:04:45.122Z,168.90
2018-03-04T04:07:15.963Z,165.18
2018-03-04T04:09:47.321Z,155.60
2018-03-04T04:12:19.252Z,159.40
2018-03-04T04:14:49.678Z,172.55
2018-03-04T04:17:21.310Z,166.32
2018-03-04T04:19:53.859Z,166.68
2018-03-04T04:22:24.415Z,152.82
2018-03-04T04:24:58.257Z,145.15
2018-03-04T04:27:28.525Z,144.18
2018-03-04T04:30:01.656Z,146.27
2018-03-04T04:32:35.952Z,146.10
2018-03-04T04:35:07.204Z,172.17
2018-03-04T04:37:48.638Z,174.48
2018-03-04T04:40:24.425Z,189.13
2018-03-04T04:42:57.650Z,188.25
2018-03-04T04:45:29.564Z,191.20
2018-03-04T04:48:01.580Z,183.48
2018-03-04T04:50:32.860Z,191.82
2018-03-04T04:53:04.833Z,176.57
2018-03-04T04:55:38.416Z,158.67
2018-03-04T04:58:08.947Z,157.05
2018-03-04T05:00:40.184Z,147.25
2018-03-04T05:03:11.037Z,158.00
2018-03-04T05:05:41.926Z,144.52
2018-03-04T05:08:13.467Z,158.55
2018-03-04T05:10:45.900Z,152.73
2018-03-04T05:13:17.567Z,166.35
2018-03-04T05:15:47.839Z,156.27
2018-03-04T05:18:22.666Z,142.85
2018-03-04T05:20:54.851Z,151.80
2018-03-04T05:23:26.315Z,182.07
2018-03-04T05:25:56.694Z,176.48
2018-03-04T05:28:28.274Z,175.23
2018-03-04T05:31:02.124Z,183.30
2018-03-04T05:33:33.629Z,179.85
2018-03-04T05:36:06.894Z,192.50
2018-03-04T05:38:41.968Z,188.12
2018-03-04T05:41:13.698Z,188.83
2018-03-04T05:43:44.976Z,171.93
2018-03-04T05:46:18.953Z,174.43
2018-03-04T05:48:53.324Z,151.30
2018-03-04T05:51:35.704Z,159.48
2018-03-04T05:54:10.396Z,158.40
2018-03-04T05:56:42.159Z,151.27
2018-03-04T05:59:12.942Z,166.93
2018-03-04T06:01:44.757Z,154.50
2018-03-04T06:04:16.980Z,152.27
2018-03-04T06:06:49.916Z,154.73
2018-03-04T06:09:20.784Z,147.30
2018-03-04T06:11:51.295Z,144.93
2018-03-04T06:14:22.610Z,152.68
2018-03-04T06:16:55.244Z,161.12
2018-03-04T06:19:26.695Z,180.02
2018-03-04T06:22:01.095Z,176.50
2018-03-04T06:24:33.246Z,169.10
2018-03-04T06:27:05.103Z,170.27
2018-03-04T06:29:37.572Z,155.48
2018-03-04T06:32:08.131Z,154.80
2018-03-04T06:34:41.652Z,153.23
2018-03-04T06:37:13.204Z,156.18
2018-03-04T06:39:47.000Z,158.30
2018-03-04T06:42:20.344Z,145.00
2018-03-04T06:44:50.883Z,149.45
2018-03-04T06:47:25.569Z,142.07
2018-03-04T06:49:57.342Z,146.20
2018-03-04T06:52:28.693Z,146.35
2018-03-04T06:54:59.674Z,148.23
2018-03-04T06:57:31.319Z,136.50
2018-03-04T07:00:02.128Z,141.85
2018-03-04T07:02:33.519Z,147.83
2018-03-04T07:05:04.821Z,136.40
2018-03-04T07:07:35.810Z,139.57
2018-03-04T07:10:06.134Z,144.73
2018-03-04T07:12:39.289Z,139.75
2018-03-04T07:15:09.961Z,148.45
2018-03-04T07:17:41.269Z,130.00
2018-03-04T07:20:14.795Z,128.93
2018-03-04T07:22:45.380Z,115.22
2018-03-04T07:25:15.935Z,119.30
2018-03-04T07:27:47.256Z,127.47
2018-03-04T07:30:20.353Z,132.53
2018-03-04T07:32:50.894Z,126.87
2018-03-04T07:35:22.613Z,124.03
2018-03-04T07:37:56.844Z,115.93
2018-03-04T07:40:27.589Z,102.23
2018-03-04T07:42:58.565Z,109.10
2018-03-04T07:45:32.820Z,74.03
2018-03-04T07:48:08.451Z,49.00
2018-03-04T07:50:40.016Z,49.75
2018-03-04T07:53:10.817Z,44.25
2018-03-04T07:55:41.175Z,50.53
2018-03-04T07:58:17.624Z,45.17
2018-03-04T08:00:48.396Z,43.60
2018-03-04T08:03:27.041Z,44.28
2018-03-04T08:06:10.427Z,39.75
2018-03-04T08:08:45.134Z,39.92
2018-03-04T08:11:17.728Z,35.63
2018-03-04T08:13:48.334Z,40.35
2018-03-04T08:16:21.675Z,37.10
2018-03-04T08:18:52.169Z,40.70
2018-03-04T08:21:25.135Z,43.47
2018-03-04T08:23:56.007Z,41.65
2018-03-04T08:27:40.325Z,40.08
2018-03-04T08:30:17.360Z,37.85
2018-03-04T08:32:49.126Z,39.75
2018-03-04T08:35:28.850Z,38.45
2018-03-04T08:38:00.926Z,37.75
2018-03-04T08:40:38.672Z,35.23
2018-03-04T08:43:09.578Z,37.50
2018-03-04T08:45:40.462Z,37.00
2018-03-04T08:48:13.251Z,33.40
2018-03-04T08:50:44.176Z,27.73
2018-03-04T08:53:18.191Z,31.85
2018-03-04T08:55:50.770Z,35.45
2018-03-04T08:58:24.732Z,35.72
2018-03-04T09:00:56.493Z,36.90
2018-03-04T09:03:27.194Z,32.03
2018-03-04T09:06:01.123Z,28.52
2018-03-04T09:08:32.831Z,26.77
2018-03-04T09:11:06.666Z,21.42
2018-03-04T09:13:40.821Z,25.67
2018-03-04T09:16:13.944Z,26.23
2018-03-04T09:18:46.665Z,25.23
2018-03-04T09:21:19.508Z,22.60
2018-03-04T09:23:56.944Z,21.25
2018-03-04T09:26:28.947Z,19.83
2018-03-04T09:29:04.684Z,18.17
2018-03-04T09:31:38.998Z,18.80
2018-03-04T09:34:10.140Z,51.60
2018-03-04T09:36:40.371Z,50.20
2018-03-04T09:39:12.547Z,47.40
2018-03-04T09:41:42.763Z,47.38
2018-03-04T09:44:14.076Z,43.65
2018-03-04T09:46:47.288Z,45.53
2018-03-04T09:49:18.227Z,39.08
2018-03-04T09:51:48.556Z,40.42
2018-03-04T09:54:19.172Z,40.50
2018-03-04T09:56:54.209Z,39.15
2018-03-04T09:59:34.690Z,34.58
2018-03-04T10:02:06.089Z,43.17
2018-03-04T10:08:17.652Z,41.35
2018-03-04T10:10:50.315Z,41.70
2018-03-04T10:13:24.509Z,48.87
2018-03-04T10:15:54.903Z,52.72
2018-03-04T10:18:25.062Z,51.47
2018-03-04T10:20:55.343Z,50.65
2018-03-04T10:23:26.320Z,47.75
2018-03-04T10:25:56.637Z,52.60
2018-03-04T10:28:27.031Z,50.05
2018-03-04T10:30:57.831Z,46.75
2018-03-04T10:33:28.813Z,49.58
2018-03-04T10:35:59.279Z,48.00
2018-03-04T10:38:31.546Z,42.95
2018-03-04T10:41:56.132Z,41.58
2018-03-04T10:44:26.838Z,38.20
2018-03-04T10:47:18.947Z,42.67
2018-03-04T10:49:49.320Z,40.00
2018-03-04T10:52:20.551Z,43.87
2018-03-04T10:54:56.060Z,44.05
2018-03-04T10:57:38.246Z,42.67
2018-03-04T11:00:13.794Z,50.00
2018-03-04T11:04:19.475Z,47.28
2018-03-04T11:15:59.259Z,45.85
2018-03-04T11:18:47.065Z,43.15
2018-03-04T11:21:21.031Z,44.35
2018-03-04T11:23:52.647Z,46.00
2018-03-04T11:26:23.176Z,48.47
2018-03-04T11:28:54.170Z,49.40
2018-03-04T11:31:34.889Z,47.67
2018-03-04T11:34:28.321Z,49.00
2018-03-04T11:37:00.202Z,48.27
2018-03-04T11:39:30.263Z,47.53
2018-03-04T11:43:01.903Z,50.67
2018-03-04T11:45:53.753Z,47.03
2018-03-04T11:49:20.613Z,51.55
2018-03-04T11:51:51.019Z,50.90
2018-03-04T11:54:22.234Z,44.42
2018-03-04T11:56:53.992Z,45.70
2018-03-04T12:02:26.863Z,41.80
2018-03-04T12:04:56.982Z,45.90
2018-03-04T12:07:29.858Z,41.95
2018-03-04T12:10:00.237Z,42.90
2018-03-04T12:12:32.041Z,42.33
2018-03-04T12:15:03.267Z,41.80
2018-03-04T12:17:39.856Z,41.08
2018-03-04T12:20:13.584Z,43.92
2018-03-04T12:22:45.999Z,41.42
2018-03-04T12:25:17.119Z,37.17
2018-03-04T12:27:47.372Z,41.67
2018-03-04T12:30:17.901Z,44.05
2018-03-04T12:33:00.237Z,42.30
2018-03-04T12:35:43.915Z,40.12
2018-03-04T12:38:27.189Z,37.28
2018-03-04T12:40:58.559Z,38.72
2018-03-04T12:43:30.374Z,34.20
2018-03-04T12:46:01.274Z,33.22
2018-03-04T12:51:46.582Z,35.00
2018-03-04T13:01:36.584Z,35.95
2018-03-04T13:04:06.957Z,36.15
2018-03-04T13:07:08.274Z,41.80
2018-03-04T13:09:48.496Z,38.83
2018-03-04T13:12:19.260Z,35.17
2018-03-04T13:14:56.820Z,40.42
2018-03-04T13:17:31.745Z,40.35
2018-03-04T13:20:02.823Z,35.53
2018-03-04T13:22:34.094Z,39.10
2018-03-04T13:25:04.519Z,39.67
2018-03-04T13:27:54.587Z,37.20
2018-03-04T13:30:27.442Z,33.10
2018-03-04T13:33:03.610Z,32.13
2018-03-04T13:35:36.514Z,37.22
2018-03-04T13:38:28.487Z,33.53
2018-03-04T13:41:22.288Z,32.22
2018-03-04T13:43:57.758Z,34.10
2018-03-04T13:46:29.812Z,33.40
2018-03-04T13:49:00.425Z,27.45
2018-03-04T13:51:38.057Z,31.27
2018-03-04T13:54:09.211Z,29.97
2018-03-04T13:56:40.531Z,35.80
2018-03-04T13:59:27.499Z,30.10
2018-03-04T14:01:58.052Z,35.58
2018-03-04T14:04:28.455Z,29.42
2018-03-04T14:07:32.869Z,31.87
2018-03-04T14:10:12.986Z,27.37
2018-03-04T14:12:44.352Z,27.87
2018-03-04T14:15:21.902Z,32.42
2018-03-04T14:18:46.425Z,32.55
2018-03-04T14:21:37.038Z,28.62
2018-03-04T14:24:17.412Z,31.80
2018-03-04T14:26:47.797Z,33.60
2018-03-04T14:29:19.064Z,35.97
2018-03-04T14:31:52.425Z,35.03
2018-03-04T14:34:23.063Z,33.10
2018-03-04T14:36:54.526Z,33.95
2018-03-04T14:39:26.683Z,36.90
2018-03-04T14:41:56.780Z,35.28
2018-03-04T14:44:36.036Z,39.20
2018-03-04T14:47:12.720Z,32.53
2018-03-04T14:53:30.957Z,30.75
2018-03-04T14:59:43.512Z,39.58
2018-03-04T15:02:14.788Z,39.25
2018-03-04T15:04:51.166Z,35.92
2018-03-04T15:07:42.686Z,39.47
2018-03-04T15:10:12.972Z,37.95
2018-03-04T15:12:45.976Z,40.95
2018-03-04T15:15:16.605Z,42.13
2018-03-04T15:17:46.734Z,42.35
2018-03-04T15:20:17.166Z,43.35
2018-03-04T15:22:47.300Z,41.17
2018-03-04T15:25:18.184Z,43.13
2018-03-04T15:27:49.039Z,52.55
2018-03-04T15:30:21.113Z,52.53
2018-03-04T15:32:51.216Z,49.53
2018-03-04T15:35:21.376Z,46.63
2018-03-04T15:37:51.456Z,44.80
2018-03-04T15:40:21.542Z,43.87
2018-03-04T15:43:08.330Z,41.25
2018-03-04T15:45:39.992Z,40.95
2018-03-04T15:48:10.794Z,43.75
2018-03-04T15:50:41.201Z,45.78
2018-03-04T15:53:18.945Z,43.23
2018-03-04T15:55:49.311Z,42.00
2018-03-04T15:58:19.452Z,41.65
2018-03-04T16:00:52.578Z,42.78
2018-03-04T16:03:23.853Z,42.95
2018-03-04T16:05:55.311Z,46.00
2018-03-04T16:08:44.075Z,42.55
2018-03-04T16:11:15.318Z,40.72
2018-03-04T16:14:07.248Z,46.40
2018-03-04T16:20:42.618Z,47.30
2018-03-04T16:23:13.114Z,46.03
2018-03-04T16:25:43.252Z,47.03
2018-03-04T16:28:17.639Z,51.30
2018-03-04T16:30:52.625Z,46.37
2018-03-04T16:33:30.107Z,51.20
2018-03-04T16:36:01.247Z,48.28
2018-03-04T16:38:33.483Z,47.30
2018-03-04T16:41:04.352Z,48.87
2018-03-04T16:43:34.501Z,51.03
2018-03-04T16:46:04.818Z,49.75
2018-03-04T16:48:34.916Z,51.58
2018-03-04T16:51:05.039Z,53.40
2018-03-04T16:53:35.500Z,47.55
2018-03-04T16:56:06.164Z,53.33
2018-03-04T16:58:36.554Z,50.97
2018-03-04T17:01:07.385Z,48.90
2018-03-04T17:03:37.530Z,55.88
2018-03-04T17:06:08.435Z,52.08
2018-03-04T17:08:39.196Z,50.80
2018-03-04T17:11:09.402Z,47.87
2018-03-04T17:13:39.623Z,49.47
2018-03-04T17:16:17.639Z,46.77
2018-03-04T17:18:57.045Z,51.22
2018-03-04T17:21:27.978Z,49.03
2018-03-04T17:23:58.294Z,50.63
2018-03-04T17:26:31.885Z,49.07
2018-03-04T17:29:03.235Z,48.53
2018-03-04T17:31:34.040Z,49.05
2018-03-04T17:34:06.834Z,62.10
2018-03-04T17:36:38.814Z,61.30
2018-03-04T17:39:10.095Z,50.55
2018-03-04T17:44:23.146Z,43.25
2018-03-04T17:46:57.811Z,42.62
2018-03-04T17:49:31.242Z,45.58
2018-03-04T17:52:09.533Z,46.55
2018-03-04T17:54:54.289Z,53.97
2018-03-04T17:57:26.969Z,48.80
2018-03-04T17:59:59.418Z,64.53
2018-03-04T18:03:57.311Z,65.55
2018-03-04T18:06:28.676Z,59.42
2018-03-04T18:08:59.679Z,71.82
2018-03-04T18:11:30.206Z,64.23
2018-03-04T18:14:00.756Z,61.03
2018-03-04T18:16:33.907Z,53.65
2018-03-04T18:19:05.531Z,56.28
2018-03-04T18:21:40.543Z,46.72
2018-03-04T18:24:40.797Z,50.75
2018-03-04T18:27:21.360Z,50.10
2018-03-04T18:29:56.919Z,52.92
2018-03-04T18:32:27.328Z,44.10
2018-03-04T18:34:58.390Z,47.50
2018-03-04T18:37:29.392Z,48.20
2018-03-04T18:40:04.642Z,47.42
2018-03-04T18:42:36.373Z,59.30
2018-03-04T18:45:06.969Z,48.40
2018-03-04T18:47:44.686Z,62.20
2018-03-04T18:50:16.631Z,67.20
2018-03-04T18:52:47.483Z,66.87
2018-03-04T18:55:18.523Z,70.37
2018-03-04T18:57:50.981Z,65.93
2018-03-04T19:00:21.295Z,61.22
2018-03-04T19:02:51.936Z,47.22
2018-03-04T19:05:22.429Z,58.38
2018-03-04T19:07:52.644Z,50.17
2018-03-04T19:10:25.131Z,47.20
2018-03-04T19:12:55.720Z,48.43
2018-03-04T19:15:26.916Z,68.27
2018-03-04T19:17:58.175Z,65.18
2018-03-04T19:20:31.305Z,49.08
2018-03-04T19:23:02.208Z,57.72
2018-03-04T19:25:35.155Z,66.07
2018-03-04T19:28:05.663Z,69.87
2018-03-04T19:30:36.052Z,64.47
2018-03-04T19:33:07.407Z,76.80
2018-03-04T19:35:38.092Z,39.30
2018-03-04T19:38:10.679Z,34.05
2018-03-04T19:40:42.169Z,29.30
2018-03-04T19:43:13.523Z,23.30
2018-03-04T19:45:44.347Z,25.60
2018-03-04T19:48:15.327Z,29.08
2018-03-04T19:52:05.635Z,31.02
2018-03-04T19:54:36.853Z,35.67
2018-03-04T19:57:07.426Z,46.07
2018-03-04T19:59:39.710Z,42.20
2018-03-04T20:02:36.644Z,37.67
2018-03-04T20:05:07.618Z,39.95
2018-03-04T20:07:37.932Z,35.58
2018-03-04T20:10:08.599Z,44.88
2018-03-04T20:12:41.946Z,41.08
2018-03-04T20:15:12.258Z,54.75
2018-03-04T20:17:44.018Z,50.53
2018-03-04T20:20:14.735Z,45.72
2018-03-04T20:22:45.866Z,51.70
2018-03-04T20:25:17.519Z,52.93
2018-03-04T20:27:49.843Z,58.63
2018-03-04T20:30:20.128Z,55.07
2018-03-04T20:32:51.193Z,59.45
2018-03-04T20:35:23.331Z,52.13
2018-03-04T20:37:54.168Z,51.95
2018-03-04T20:40:25.228Z,43.35
2018-03-04T20:43:04.333Z,50.28
2018-03-04T20:45:36.702Z,51.63
2018-03-04T20:48:08.477Z,59.75
2018-03-04T20:50:57.753Z,49.67
2018-03-04T20:53:29.019Z,52.25
2018-03-04T20:55:59.358Z,47.80
2018-03-04T20:58:32.901Z,52.20
2018-03-04T21:01:03.822Z,51.60
2018-03-04T21:03:34.131Z,52.10
2018-03-04T21:06:04.375Z,51.40
2018-03-04T21:08:34.958Z,51.37
2018-03-04T21:11:05.338Z,51.60
2018-03-04T21:13:35.482Z,51.80
2018-03-04T21:16:07.728Z,58.37
2018-03-04T21:18:41.149Z,53.57
2018-03-04T21:21:11.795Z,51.40
2018-03-04T21:23:43.971Z,52.97
2018-03-04T21:26:14.935Z,50.00
2018-03-04T21:28:45.315Z,47.90
2018-03-04T21:31:15.467Z,47.92
2018-03-04T21:33:45.600Z,44.80
2018-03-04T21:36:17.547Z,45.43
2018-03-04T21:38:55.184Z,51.55
2018-03-04T21:41:27.982Z,55.60
2018-03-04T21:44:01.967Z,55.33
2018-03-04T21:46:32.474Z,47.13
2018-03-04T21:49:03.068Z,53.67
2018-03-04T21:51:34.770Z,49.50
2018-03-04T21:54:06.134Z,46.65
2018-03-04T21:56:36.860Z,47.35
2018-03-04T21:59:07.883Z,53.87
2018-03-04T22:01:38.031Z,48.72
2018-03-04T22:04:08.956Z,53.20
2018-03-04T22:06:40.145Z,60.63
2018-03-04T22:09:10.745Z,52.17
2018-03-04T22:11:40.880Z,53.80
2018-03-04T22:14:11.141Z,45.73
2018-03-04T22:16:43.007Z,49.20
2018-03-04T22:19:13.884Z,45.43
2018-03-04T22:21:44.296Z,47.30
2018-03-04T22:24:14.377Z,42.88
2018-03-04T22:26:45.481Z,43.83
2018-03-04T22:29:16.594Z,37.47
2018-03-04T22:31:46.685Z,39.27
2018-03-04T22:34:17.539Z,39.53
2018-03-04T22:36:48.132Z,42.77
2018-03-04T22:39:18.192Z,31.43
2018-03-04T22:41:48.413Z,32.03
2018-03-04T22:44:18.619Z,30.58
2018-03-04T22:46:53.508Z,32.60
2018-03-04T22:49:25.560Z,36.22
2018-03-04T22:51:56.084Z,32.90
2018-03-04T22:54:26.725Z,32.97
2018-03-04T22:56:57.259Z,32.00
2018-03-04T22:59:27.872Z,26.20
2018-03-04T23:01:58.209Z,19.27
2018-03-04T23:04:29.158Z,13.17
2018-03-04T23:06:59.504Z,20.77
2018-03-04T23:09:31.012Z,22.80
2018-03-04T23:12:01.352Z,23.42
2018-03-04T23:14:31.453Z,24.17
2018-03-04T23:17:02.791Z,29.25
2018-03-04T23:19:33.367Z,26.30
2018-03-04T23:22:04.834Z,25.60
2018-03-04T23:24:35.644Z,20.17
2018-03-04T23:27:06.526Z,24.15
2018-03-04T23:29:37.007Z,19.15
2018-03-04T23:32:08.298Z,21.37
2018-03-04T23:34:38.760Z,24.15
2018-03-04T23:37:09.077Z,21.40
2018-03-04T23:39:39.448Z,16.42
2018-03-04T23:42:09.520Z,10.82
2018-03-04T23:44:40.403Z,12.70
2018-03-04T23:47:10.648Z,21.65
2018-03-04T23:49:40.753Z,26.67
2018-03-04T23:52:10.988Z,37.70
2018-03-04T23:54:41.167Z,36.03
2018-03-04T23:57:11.385Z,33.10
2018-03-04T23:59:41.532Z,38.85
